sensor_id;sensor_type;location;lat;lon;timestamp;P1;durP1;ratioP1;P2;durP2;ratioP2
33716;SDS011;20046;50.746;7.072;2024-01-06T00:00:21;1.67;;;1.23;;
33716;SDS011;20046;50.746;7.072;2024-01-06T00:02:48;1.88;;;1.40;;
33716;SDS011;20046;50.746;7.072;2024-01-06T00:05:14;2.80;;;1.30;;
33716;SDS011;20046;50.746;7.072;2024-01-06T00:07:39;1.65;;;1.17;;
33716;SDS011;20046;50.746;7.072;2024-01-06T00:10:05;2.08;;;1.30;;
33716;SDS011;20046;50.746;7.072;2024-01-06T00:12:31;4.75;;;1.50;;
33716;SDS011;20046;50.746;7.072;2024-01-06T00:14:57;2.13;;;1.17;;
33716;SDS011;20046;50.746;7.072;2024-01-06T00:17:23;4.05;;;1.73;;
33716;SDS011;20046;50.746;7.072;2024-01-06T00:19:48;3.35;;;1.98;;
33716;SDS011;20046;50.746;7.072;2024-01-06T00:22:16;3.72;;;1.65;;
33716;SDS011;20046;50.746;7.072;2024-01-06T00:24:45;2.50;;;1.30;;
33716;SDS011;20046;50.746;7.072;2024-01-06T00:27:10;3.35;;;1.40;;
33716;SDS011;20046;50.746;7.072;2024-01-06T00:29:36;2.83;;;1.25;;
33716;SDS011;20046;50.746;7.072;2024-01-06T00:32:02;2.05;;;1.30;;
33716;SDS011;20046;50.746;7.072;2024-01-06T00:34:27;2.50;;;1.50;;
33716;SDS011;20046;50.746;7.072;2024-01-06T00:36:53;2.17;;;1.50;;
33716;SDS011;20046;50.746;7.072;2024-01-06T00:39:19;1.98;;;1.40;;
33716;SDS011;20046;50.746;7.072;2024-01-06T00:41:45;2.10;;;1.50;;
33716;SDS011;20046;50.746;7.072;2024-01-06T00:44:11;3.45;;;1.48;;
33716;SDS011;20046;50.746;7.072;2024-01-06T00:46:37;3.50;;;1.70;;
33716;SDS011;20046;50.746;7.072;2024-01-06T00:49:03;4.50;;;1.73;;
33716;SDS011;20046;50.746;7.072;2024-01-06T00:51:29;13.70;;;6.60;;
33716;SDS011;20046;50.746;7.072;2024-01-06T00:53:55;2.53;;;1.77;;
33716;SDS011;20046;50.746;7.072;2024-01-06T00:56:20;4.95;;;1.83;;
33716;SDS011;20046;50.746;7.072;2024-01-06T00:58:46;3.10;;;1.92;;
33716;SDS011;20046;50.746;7.072;2024-01-06T01:01:11;2.40;;;1.70;;
33716;SDS011;20046;50.746;7.072;2024-01-06T01:03:37;3.85;;;1.92;;
33716;SDS011;20046;50.746;7.072;2024-01-06T01:06:03;2.80;;;1.60;;
33716;SDS011;20046;50.746;7.072;2024-01-06T01:08:28;3.88;;;2.53;;
33716;SDS011;20046;50.746;7.072;2024-01-06T01:10:55;34.03;;;14.32;;
33716;SDS011;20046;50.746;7.072;2024-01-06T01:13:21;2.22;;;1.85;;
33716;SDS011;20046;50.746;7.072;2024-01-06T01:15:47;3.78;;;1.55;;
33716;SDS011;20046;50.746;7.072;2024-01-06T01:18:13;1.95;;;1.50;;
33716;SDS011;20046;50.746;7.072;2024-01-06T01:20:39;5.35;;;1.33;;
33716;SDS011;20046;50.746;7.072;2024-01-06T01:23:06;7.55;;;2.42;;
33716;SDS011;20046;50.746;7.072;2024-01-06T01:25:32;2.47;;;1.60;;
33716;SDS011;20046;50.746;7.072;2024-01-06T01:27:58;3.45;;;1.40;;
33716;SDS011;20046;50.746;7.072;2024-01-06T01:30:23;1.67;;;1.50;;
33716;SDS011;20046;50.746;7.072;2024-01-06T01:32:49;3.60;;;1.33;;
33716;SDS011;20046;50.746;7.072;2024-01-06T01:35:15;1.95;;;1.50;;
33716;SDS011;20046;50.746;7.072;2024-01-06T01:37:40;2.65;;;1.67;;
33716;SDS011;20046;50.746;7.072;2024-01-06T01:40:06;2.30;;;1.60;;
33716;SDS011;20046;50.746;7.072;2024-01-06T01:42:32;3.90;;;1.60;;
33716;SDS011;20046;50.746;7.072;2024-01-06T01:44:58;3.15;;;1.42;;
33716;SDS011;20046;50.746;7.072;2024-01-06T01:47:24;3.72;;;1.63;;
33716;SDS011;20046;50.746;7.072;2024-01-06T01:49:50;1.80;;;1.58;;
33716;SDS011;20046;50.746;7.072;2024-01-06T01:52:17;1.88;;;1.50;;
33716;SDS011;20046;50.746;7.072;2024-01-06T01:54:43;1.98;;;1.55;;
33716;SDS011;20046;50.746;7.072;2024-01-06T01:57:11;1.95;;;1.70;;
33716;SDS011;20046;50.746;7.072;2024-01-06T01:59:38;3.60;;;1.65;;
33716;SDS011;20046;50.746;7.072;2024-01-06T02:02:04;1.90;;;1.67;;
33716;SDS011;20046;50.746;7.072;2024-01-06T02:04:31;4.63;;;1.85;;
33716;SDS011;20046;50.746;7.072;2024-01-06T02:06:57;3.85;;;1.58;;
33716;SDS011;20046;50.746;7.072;2024-01-06T02:09:22;4.60;;;1.92;;
33716;SDS011;20046;50.746;7.072;2024-01-06T02:11:52;3.58;;;1.67;;
33716;SDS011;20046;50.746;7.072;2024-01-06T02:14:17;2.05;;;1.70;;
33716;SDS011;20046;50.746;7.072;2024-01-06T02:16:43;2.20;;;1.80;;
33716;SDS011;20046;50.746;7.072;2024-01-06T02:19:09;3.10;;;1.92;;
33716;SDS011;20046;50.746;7.072;2024-01-06T02:21:39;4.03;;;2.13;;
33716;SDS011;20046;50.746;7.072;2024-01-06T02:24:07;3.80;;;2.15;;
33716;SDS011;20046;50.746;7.072;2024-01-06T02:26:33;4.03;;;2.17;;
33716;SDS011;20046;50.746;7.072;2024-01-06T02:28:58;3.10;;;2.35;;
33716;SDS011;20046;50.746;7.072;2024-01-06T02:31:24;6.47;;;2.78;;
33716;SDS011;20046;50.746;7.072;2024-01-06T02:33:49;3.60;;;2.83;;
33716;SDS011;20046;50.746;7.072;2024-01-06T02:36:15;4.63;;;2.75;;
33716;SDS011;20046;50.746;7.072;2024-01-06T02:38:40;2.90;;;2.35;;
33716;SDS011;20046;50.746;7.072;2024-01-06T02:41:06;3.92;;;2.95;;
33716;SDS011;20046;50.746;7.072;2024-01-06T02:43:32;4.22;;;2.80;;
33716;SDS011;20046;50.746;7.072;2024-01-06T02:45:57;5.72;;;3.40;;
33716;SDS011;20046;50.746;7.072;2024-01-06T02:48:23;4.13;;;3.20;;
33716;SDS011;20046;50.746;7.072;2024-01-06T02:50:48;5.88;;;3.20;;
33716;SDS011;20046;50.746;7.072;2024-01-06T02:53:14;6.68;;;3.03;;
33716;SDS011;20046;50.746;7.072;2024-01-06T02:55:39;8.95;;;3.75;;
33716;SDS011;20046;50.746;7.072;2024-01-06T02:58:05;4.63;;;3.25;;
33716;SDS011;20046;50.746;7.072;2024-01-06T03:00:31;7.53;;;3.70;;
33716;SDS011;20046;50.746;7.072;2024-01-06T03:02:56;5.60;;;3.78;;
33716;SDS011;20046;50.746;7.072;2024-01-06T03:05:22;4.35;;;3.60;;
33716;SDS011;20046;50.746;7.072;2024-01-06T03:07:47;6.55;;;3.95;;
33716;SDS011;20046;50.746;7.072;2024-01-06T03:10:13;9.63;;;5.07;;
33716;SDS011;20046;50.746;7.072;2024-01-06T03:12:39;6.38;;;4.13;;
33716;SDS011;20046;50.746;7.072;2024-01-06T03:15:05;10.13;;;4.95;;
33716;SDS011;20046;50.746;7.072;2024-01-06T03:17:30;6.65;;;4.05;;
33716;SDS011;20046;50.746;7.072;2024-01-06T03:19:56;8.85;;;4.80;;
33716;SDS011;20046;50.746;7.072;2024-01-06T03:22:22;10.48;;;5.72;;
33716;SDS011;20046;50.746;7.072;2024-01-06T03:24:48;9.68;;;5.90;;
33716;SDS011;20046;50.746;7.072;2024-01-06T03:27:13;9.25;;;5.22;;
33716;SDS011;20046;50.746;7.072;2024-01-06T03:29:39;12.10;;;6.65;;
33716;SDS011;20046;50.746;7.072;2024-01-06T03:32:05;10.48;;;6.72;;
33716;SDS011;20046;50.746;7.072;2024-01-06T03:34:31;12.13;;;7.18;;
33716;SDS011;20046;50.746;7.072;2024-01-06T03:36:56;12.18;;;7.20;;
33716;SDS011;20046;50.746;7.072;2024-01-06T03:39:22;13.30;;;7.38;;
33716;SDS011;20046;50.746;7.072;2024-01-06T03:41:48;12.40;;;7.68;;
33716;SDS011;20046;50.746;7.072;2024-01-06T03:44:14;12.73;;;8.07;;
33716;SDS011;20046;50.746;7.072;2024-01-06T03:46:39;12.88;;;7.55;;
33716;SDS011;20046;50.746;7.072;2024-01-06T03:49:05;11.25;;;7.38;;
33716;SDS011;20046;50.746;7.072;2024-01-06T03:51:30;12.30;;;7.93;;
33716;SDS011;20046;50.746;7.072;2024-01-06T03:53:56;14.27;;;8.10;;
33716;SDS011;20046;50.746;7.072;2024-01-06T03:56:21;12.73;;;8.00;;
33716;SDS011;20046;50.746;7.072;2024-01-06T03:58:47;13.52;;;8.48;;
33716;SDS011;20046;50.746;7.072;2024-01-06T04:01:13;17.27;;;8.32;;
33716;SDS011;20046;50.746;7.072;2024-01-06T04:03:38;14.40;;;8.07;;
33716;SDS011;20046;50.746;7.072;2024-01-06T04:06:07;13.75;;;8.23;;
33716;SDS011;20046;50.746;7.072;2024-01-06T04:08:33;14.10;;;7.75;;
33716;SDS011;20046;50.746;7.072;2024-01-06T04:10:58;16.50;;;9.30;;
33716;SDS011;20046;50.746;7.072;2024-01-06T04:13:24;13.32;;;8.32;;
33716;SDS011;20046;50.746;7.072;2024-01-06T04:15:50;17.35;;;8.85;;
33716;SDS011;20046;50.746;7.072;2024-01-06T04:18:16;18.60;;;9.27;;
33716;SDS011;20046;50.746;7.072;2024-01-06T04:20:42;14.20;;;8.65;;
33716;SDS011;20046;50.746;7.072;2024-01-06T04:23:07;18.55;;;9.98;;
33716;SDS011;20046;50.746;7.072;2024-01-06T04:25:33;17.55;;;9.07;;
33716;SDS011;20046;50.746;7.072;2024-01-06T04:27:58;16.02;;;9.63;;
33716;SDS011;20046;50.746;7.072;2024-01-06T04:30:24;18.27;;;9.80;;
33716;SDS011;20046;50.746;7.072;2024-01-06T04:32:51;19.95;;;9.70;;
33716;SDS011;20046;50.746;7.072;2024-01-06T04:35:17;16.15;;;9.15;;
33716;SDS011;20046;50.746;7.072;2024-01-06T04:37:43;19.35;;;10.55;;
33716;SDS011;20046;50.746;7.072;2024-01-06T04:40:09;20.33;;;9.90;;
33716;SDS011;20046;50.746;7.072;2024-01-06T04:42:35;20.58;;;10.45;;
33716;SDS011;20046;50.746;7.072;2024-01-06T04:45:01;21.73;;;11.20;;
33716;SDS011;20046;50.746;7.072;2024-01-06T04:47:27;22.73;;;11.38;;
33716;SDS011;20046;50.746;7.072;2024-01-06T04:49:55;21.05;;;11.88;;
33716;SDS011;20046;50.746;7.072;2024-01-06T04:52:21;24.92;;;13.15;;
33716;SDS011;20046;50.746;7.072;2024-01-06T04:54:47;26.25;;;13.45;;
33716;SDS011;20046;50.746;7.072;2024-01-06T04:57:12;26.48;;;13.73;;
33716;SDS011;20046;50.746;7.072;2024-01-06T04:59:39;22.63;;;12.43;;
33716;SDS011;20046;50.746;7.072;2024-01-06T05:02:04;25.20;;;13.00;;
33716;SDS011;20046;50.746;7.072;2024-01-06T05:04:30;27.30;;;14.10;;
33716;SDS011;20046;50.746;7.072;2024-01-06T05:06:57;27.15;;;13.27;;
33716;SDS011;20046;50.746;7.072;2024-01-06T05:09:23;27.92;;;12.57;;
33716;SDS011;20046;50.746;7.072;2024-01-06T05:11:50;24.85;;;12.25;;
33716;SDS011;20046;50.746;7.072;2024-01-06T05:14:15;24.08;;;12.15;;
33716;SDS011;20046;50.746;7.072;2024-01-06T05:16:41;20.65;;;11.52;;
33716;SDS011;20046;50.746;7.072;2024-01-06T05:19:07;22.05;;;10.98;;
33716;SDS011;20046;50.746;7.072;2024-01-06T05:21:32;19.10;;;10.38;;
33716;SDS011;20046;50.746;7.072;2024-01-06T05:23:59;21.73;;;11.07;;
33716;SDS011;20046;50.746;7.072;2024-01-06T05:26:24;16.73;;;9.52;;
33716;SDS011;20046;50.746;7.072;2024-01-06T05:28:51;19.17;;;10.05;;
33716;SDS011;20046;50.746;7.072;2024-01-06T05:31:17;19.20;;;9.73;;
33716;SDS011;20046;50.746;7.072;2024-01-06T05:33:42;21.88;;;9.50;;
33716;SDS011;20046;50.746;7.072;2024-01-06T05:36:08;20.33;;;10.05;;
33716;SDS011;20046;50.746;7.072;2024-01-06T05:38:33;21.30;;;10.43;;
33716;SDS011;20046;50.746;7.072;2024-01-06T05:40:59;19.80;;;9.90;;
33716;SDS011;20046;50.746;7.072;2024-01-06T05:43:25;22.35;;;11.13;;
33716;SDS011;20046;50.746;7.072;2024-01-06T05:45:51;24.10;;;11.45;;
33716;SDS011;20046;50.746;7.072;2024-01-06T05:48:16;24.85;;;12.07;;
33716;SDS011;20046;50.746;7.072;2024-01-06T05:50:42;27.05;;;12.45;;
33716;SDS011;20046;50.746;7.072;2024-01-06T05:53:07;29.70;;;13.52;;
33716;SDS011;20046;50.746;7.072;2024-01-06T05:55:33;28.20;;;14.02;;
33716;SDS011;20046;50.746;7.072;2024-01-06T05:57:59;27.25;;;13.40;;
33716;SDS011;20046;50.746;7.072;2024-01-06T06:00:25;31.35;;;13.52;;
33716;SDS011;20046;50.746;7.072;2024-01-06T06:02:51;31.75;;;15.38;;
33716;SDS011;20046;50.746;7.072;2024-01-06T06:05:17;31.83;;;15.07;;
33716;SDS011;20046;50.746;7.072;2024-01-06T06:07:42;36.50;;;17.73;;
33716;SDS011;20046;50.746;7.072;2024-01-06T06:10:09;41.97;;;17.08;;
33716;SDS011;20046;50.746;7.072;2024-01-06T06:12:36;39.65;;;19.02;;
33716;SDS011;20046;50.746;7.072;2024-01-06T06:15:02;46.85;;;21.10;;
33716;SDS011;20046;50.746;7.072;2024-01-06T06:17:29;49.83;;;21.98;;
33716;SDS011;20046;50.746;7.072;2024-01-06T06:19:56;50.70;;;22.50;;
33716;SDS011;20046;50.746;7.072;2024-01-06T06:22:22;47.28;;;21.65;;
33716;SDS011;20046;50.746;7.072;2024-01-06T06:24:48;50.30;;;20.27;;
33716;SDS011;20046;50.746;7.072;2024-01-06T06:27:13;50.28;;;20.88;;
33716;SDS011;20046;50.746;7.072;2024-01-06T06:29:39;46.83;;;21.75;;
33716;SDS011;20046;50.746;7.072;2024-01-06T06:32:05;49.45;;;19.70;;
33716;SDS011;20046;50.746;7.072;2024-01-06T06:34:30;46.72;;;19.35;;
33716;SDS011;20046;50.746;7.072;2024-01-06T06:36:56;49.53;;;20.17;;
33716;SDS011;20046;50.746;7.072;2024-01-06T06:39:21;44.22;;;18.83;;
33716;SDS011;20046;50.746;7.072;2024-01-06T06:41:47;47.10;;;20.13;;
33716;SDS011;20046;50.746;7.072;2024-01-06T06:44:13;49.45;;;20.98;;
33716;SDS011;20046;50.746;7.072;2024-01-06T06:46:38;51.83;;;20.17;;
33716;SDS011;20046;50.746;7.072;2024-01-06T06:49:04;44.42;;;19.63;;
33716;SDS011;20046;50.746;7.072;2024-01-06T06:51:30;47.13;;;19.45;;
33716;SDS011;20046;50.746;7.072;2024-01-06T06:53:55;42.05;;;18.02;;
33716;SDS011;20046;50.746;7.072;2024-01-06T06:56:21;41.55;;;17.75;;
33716;SDS011;20046;50.746;7.072;2024-01-06T06:58:47;40.92;;;17.20;;
33716;SDS011;20046;50.746;7.072;2024-01-06T07:01:14;41.22;;;16.77;;
33716;SDS011;20046;50.746;7.072;2024-01-06T07:03:40;49.28;;;16.70;;
33716;SDS011;20046;50.746;7.072;2024-01-06T07:06:06;47.28;;;18.48;;
33716;SDS011;20046;50.746;7.072;2024-01-06T07:08:31;39.88;;;16.48;;
33716;SDS011;20046;50.746;7.072;2024-01-06T07:10:57;41.85;;;16.40;;
33716;SDS011;20046;50.746;7.072;2024-01-06T07:13:23;35.53;;;15.57;;
33716;SDS011;20046;50.746;7.072;2024-01-06T07:15:48;37.67;;;15.50;;
33716;SDS011;20046;50.746;7.072;2024-01-06T07:18:14;43.42;;;16.40;;
33716;SDS011;20046;50.746;7.072;2024-01-06T07:20:39;34.85;;;15.15;;
33716;SDS011;20046;50.746;7.072;2024-01-06T07:23:05;30.70;;;13.43;;
33716;SDS011;20046;50.746;7.072;2024-01-06T07:25:30;33.88;;;13.98;;
33716;SDS011;20046;50.746;7.072;2024-01-06T07:27:56;35.75;;;14.07;;
33716;SDS011;20046;50.746;7.072;2024-01-06T07:30:22;39.83;;;15.60;;
33716;SDS011;20046;50.746;7.072;2024-01-06T07:32:48;42.28;;;15.35;;
33716;SDS011;20046;50.746;7.072;2024-01-06T07:35:14;35.83;;;14.65;;
33716;SDS011;20046;50.746;7.072;2024-01-06T07:37:41;35.17;;;14.10;;
33716;SDS011;20046;50.746;7.072;2024-01-06T07:40:06;44.42;;;15.70;;
33716;SDS011;20046;50.746;7.072;2024-01-06T07:42:32;37.10;;;15.15;;
33716;SDS011;20046;50.746;7.072;2024-01-06T07:44:58;35.72;;;14.20;;
33716;SDS011;20046;50.746;7.072;2024-01-06T07:47:24;34.40;;;14.07;;
33716;SDS011;20046;50.746;7.072;2024-01-06T07:49:49;39.38;;;14.40;;
33716;SDS011;20046;50.746;7.072;2024-01-06T07:52:15;40.42;;;15.57;;
33716;SDS011;20046;50.746;7.072;2024-01-06T07:54:41;33.00;;;14.10;;
33716;SDS011;20046;50.746;7.072;2024-01-06T07:57:07;36.67;;;14.47;;
33716;SDS011;20046;50.746;7.072;2024-01-06T07:59:33;35.42;;;13.75;;
33716;SDS011;20046;50.746;7.072;2024-01-06T08:01:58;33.30;;;13.23;;
33716;SDS011;20046;50.746;7.072;2024-01-06T08:04:24;36.17;;;14.35;;
33716;SDS011;20046;50.746;7.072;2024-01-06T08:06:49;35.28;;;14.02;;
33716;SDS011;20046;50.746;7.072;2024-01-06T08:09:15;33.38;;;13.77;;
33716;SDS011;20046;50.746;7.072;2024-01-06T08:11:40;37.95;;;14.60;;
33716;SDS011;20046;50.746;7.072;2024-01-06T08:14:07;34.45;;;13.65;;
33716;SDS011;20046;50.746;7.072;2024-01-06T08:16:33;32.58;;;13.48;;
33716;SDS011;20046;50.746;7.072;2024-01-06T08:18:59;37.25;;;15.30;;
33716;SDS011;20046;50.746;7.072;2024-01-06T08:21:24;34.22;;;14.25;;
33716;SDS011;20046;50.746;7.072;2024-01-06T08:23:50;34.97;;;14.63;;
33716;SDS011;20046;50.746;7.072;2024-01-06T08:26:15;35.55;;;14.32;;
33716;SDS011;20046;50.746;7.072;2024-01-06T08:28:41;38.17;;;15.25;;
33716;SDS011;20046;50.746;7.072;2024-01-06T08:31:07;38.67;;;14.73;;
33716;SDS011;20046;50.746;7.072;2024-01-06T08:33:32;33.83;;;14.13;;
33716;SDS011;20046;50.746;7.072;2024-01-06T08:35:58;34.47;;;14.43;;
33716;SDS011;20046;50.746;7.072;2024-01-06T08:38:23;36.20;;;15.13;;
33716;SDS011;20046;50.746;7.072;2024-01-06T08:40:49;39.05;;;14.63;;
33716;SDS011;20046;50.746;7.072;2024-01-06T08:43:15;35.78;;;14.73;;
33716;SDS011;20046;50.746;7.072;2024-01-06T08:45:41;42.88;;;16.38;;
33716;SDS011;20046;50.746;7.072;2024-01-06T08:48:07;40.90;;;15.90;;
33716;SDS011;20046;50.746;7.072;2024-01-06T08:50:32;38.95;;;13.63;;
33716;SDS011;20046;50.746;7.072;2024-01-06T08:52:58;34.53;;;14.68;;
33716;SDS011;20046;50.746;7.072;2024-01-06T08:55:23;35.65;;;15.55;;
33716;SDS011;20046;50.746;7.072;2024-01-06T08:57:49;52.00;;;19.25;;
33716;SDS011;20046;50.746;7.072;2024-01-06T09:00:15;38.50;;;15.07;;
33716;SDS011;20046;50.746;7.072;2024-01-06T09:02:42;37.03;;;16.20;;
33716;SDS011;20046;50.746;7.072;2024-01-06T09:05:07;37.63;;;15.75;;
33716;SDS011;20046;50.746;7.072;2024-01-06T09:07:33;35.70;;;15.38;;
33716;SDS011;20046;50.746;7.072;2024-01-06T09:09:59;42.33;;;16.85;;
33716;SDS011;20046;50.746;7.072;2024-01-06T09:12:24;40.45;;;17.17;;
33716;SDS011;20046;50.746;7.072;2024-01-06T09:14:50;53.28;;;18.23;;
33716;SDS011;20046;50.746;7.072;2024-01-06T09:17:16;41.65;;;15.90;;
33716;SDS011;20046;50.746;7.072;2024-01-06T09:19:41;41.28;;;17.00;;
33716;SDS011;20046;50.746;7.072;2024-01-06T09:22:07;40.95;;;17.23;;
33716;SDS011;20046;50.746;7.072;2024-01-06T09:24:32;38.33;;;16.73;;
33716;SDS011;20046;50.746;7.072;2024-01-06T09:26:58;44.13;;;19.50;;
33716;SDS011;20046;50.746;7.072;2024-01-06T09:29:24;41.72;;;18.63;;
33716;SDS011;20046;50.746;7.072;2024-01-06T09:31:50;47.80;;;19.02;;
33716;SDS011;20046;50.746;7.072;2024-01-06T09:34:15;42.72;;;18.90;;
33716;SDS011;20046;50.746;7.072;2024-01-06T09:36:41;42.05;;;18.95;;
33716;SDS011;20046;50.746;7.072;2024-01-06T09:39:06;43.78;;;19.10;;
33716;SDS011;20046;50.746;7.072;2024-01-06T09:41:33;47.53;;;17.00;;
33716;SDS011;20046;50.746;7.072;2024-01-06T09:43:59;45.50;;;17.77;;
33716;SDS011;20046;50.746;7.072;2024-01-06T09:46:25;41.47;;;17.13;;
33716;SDS011;20046;50.746;7.072;2024-01-06T09:48:52;45.97;;;17.45;;
33716;SDS011;20046;50.746;7.072;2024-01-06T09:51:19;43.78;;;18.00;;
33716;SDS011;20046;50.746;7.072;2024-01-06T09:53:57;48.13;;;19.17;;
33716;SDS011;20046;50.746;7.072;2024-01-06T09:56:25;44.45;;;19.23;;
33716;SDS011;20046;50.746;7.072;2024-01-06T09:58:52;41.83;;;17.73;;
33716;SDS011;20046;50.746;7.072;2024-01-06T10:01:18;47.50;;;19.35;;
33716;SDS011;20046;50.746;7.072;2024-01-06T10:03:44;44.38;;;18.30;;
33716;SDS011;20046;50.746;7.072;2024-01-06T10:06:10;44.88;;;18.25;;
33716;SDS011;20046;50.746;7.072;2024-01-06T10:08:36;41.00;;;18.17;;
33716;SDS011;20046;50.746;7.072;2024-01-06T10:11:05;40.40;;;16.88;;
33716;SDS011;20046;50.746;7.072;2024-01-06T10:13:33;43.35;;;18.35;;
33716;SDS011;20046;50.746;7.072;2024-01-06T10:15:58;35.38;;;15.55;;
33716;SDS011;20046;50.746;7.072;2024-01-06T10:18:24;35.03;;;14.43;;
33716;SDS011;20046;50.746;7.072;2024-01-06T10:20:52;32.08;;;14.63;;
33716;SDS011;20046;50.746;7.072;2024-01-06T10:23:18;31.55;;;13.68;;
33716;SDS011;20046;50.746;7.072;2024-01-06T10:25:44;32.88;;;14.45;;
33716;SDS011;20046;50.746;7.072;2024-01-06T10:28:12;29.73;;;13.70;;
33716;SDS011;20046;50.746;7.072;2024-01-06T10:30:41;34.55;;;13.77;;
33716;SDS011;20046;50.746;7.072;2024-01-06T10:33:09;30.17;;;12.55;;
33716;SDS011;20046;50.746;7.072;2024-01-06T10:35:35;27.17;;;12.55;;
33716;SDS011;20046;50.746;7.072;2024-01-06T10:38:02;28.75;;;12.38;;
33716;SDS011;20046;50.746;7.072;2024-01-06T10:40:28;29.05;;;11.88;;
33716;SDS011;20046;50.746;7.072;2024-01-06T10:42:54;27.02;;;11.60;;
33716;SDS011;20046;50.746;7.072;2024-01-06T10:45:22;23.42;;;11.88;;
33716;SDS011;20046;50.746;7.072;2024-01-06T10:47:48;25.65;;;11.40;;
33716;SDS011;20046;50.746;7.072;2024-01-06T10:50:16;24.17;;;10.70;;
33716;SDS011;20046;50.746;7.072;2024-01-06T10:52:42;28.58;;;11.25;;
33716;SDS011;20046;50.746;7.072;2024-01-06T10:55:09;24.48;;;11.05;;
33716;SDS011;20046;50.746;7.072;2024-01-06T10:57:34;25.52;;;10.93;;
33716;SDS011;20046;50.746;7.072;2024-01-06T11:00:03;22.02;;;10.50;;
33716;SDS011;20046;50.746;7.072;2024-01-06T11:02:30;20.85;;;10.20;;
33716;SDS011;20046;50.746;7.072;2024-01-06T11:04:56;21.65;;;10.15;;
33716;SDS011;20046;50.746;7.072;2024-01-06T11:07:23;22.48;;;10.05;;
33716;SDS011;20046;50.746;7.072;2024-01-06T11:12:21;21.40;;;9.55;;
33716;SDS011;20046;50.746;7.072;2024-01-06T11:14:47;19.98;;;9.90;;
33716;SDS011;20046;50.746;7.072;2024-01-06T11:17:13;19.25;;;9.20;;
33716;SDS011;20046;50.746;7.072;2024-01-06T11:20:05;19.33;;;9.25;;
33716;SDS011;20046;50.746;7.072;2024-01-06T11:22:31;18.50;;;9.53;;
33716;SDS011;20046;50.746;7.072;2024-01-06T11:25:03;17.00;;;8.57;;
33716;SDS011;20046;50.746;7.072;2024-01-06T11:27:33;20.80;;;9.13;;
33716;SDS011;20046;50.746;7.072;2024-01-06T11:30:01;17.40;;;9.02;;
33716;SDS011;20046;50.746;7.072;2024-01-06T11:32:31;21.60;;;10.18;;
33716;SDS011;20046;50.746;7.072;2024-01-06T11:35:15;19.75;;;9.77;;
33716;SDS011;20046;50.746;7.072;2024-01-06T11:42:39;20.83;;;10.45;;
33716;SDS011;20046;50.746;7.072;2024-01-06T11:45:07;21.65;;;10.00;;
33716;SDS011;20046;50.746;7.072;2024-01-06T11:47:33;26.90;;;11.85;;
33716;SDS011;20046;50.746;7.072;2024-01-06T11:50:02;25.73;;;12.30;;
33716;SDS011;20046;50.746;7.072;2024-01-06T11:52:30;24.38;;;11.32;;
33716;SDS011;20046;50.746;7.072;2024-01-06T11:54:59;23.15;;;11.07;;
33716;SDS011;20046;50.746;7.072;2024-01-06T11:57:50;21.88;;;10.85;;
33716;SDS011;20046;50.746;7.072;2024-01-06T12:00:16;23.33;;;11.30;;
33716;SDS011;20046;50.746;7.072;2024-01-06T12:02:42;23.58;;;10.15;;
33716;SDS011;20046;50.746;7.072;2024-01-06T12:05:12;27.50;;;11.82;;
33716;SDS011;20046;50.746;7.072;2024-01-06T12:07:40;27.20;;;11.95;;
33716;SDS011;20046;50.746;7.072;2024-01-06T12:10:07;26.08;;;11.57;;
33716;SDS011;20046;50.746;7.072;2024-01-06T12:12:33;23.42;;;11.13;;
33716;SDS011;20046;50.746;7.072;2024-01-06T12:14:58;28.55;;;12.10;;
33716;SDS011;20046;50.746;7.072;2024-01-06T12:17:27;22.45;;;11.65;;
33716;SDS011;20046;50.746;7.072;2024-01-06T12:19:54;28.05;;;12.25;;
33716;SDS011;20046;50.746;7.072;2024-01-06T12:22:20;27.23;;;12.20;;
33716;SDS011;20046;50.746;7.072;2024-01-06T12:24:48;28.58;;;12.23;;
33716;SDS011;20046;50.746;7.072;2024-01-06T12:27:16;25.10;;;11.63;;
33716;SDS011;20046;50.746;7.072;2024-01-06T12:29:43;25.02;;;11.88;;
33716;SDS011;20046;50.746;7.072;2024-01-06T12:32:10;30.15;;;12.77;;
33716;SDS011;20046;50.746;7.072;2024-01-06T12:34:38;27.10;;;12.38;;
33716;SDS011;20046;50.746;7.072;2024-01-06T12:37:04;24.77;;;11.48;;
33716;SDS011;20046;50.746;7.072;2024-01-06T12:39:32;27.98;;;12.80;;
33716;SDS011;20046;50.746;7.072;2024-01-06T12:41:58;22.80;;;11.73;;
33716;SDS011;20046;50.746;7.072;2024-01-06T12:44:26;24.73;;;12.05;;
33716;SDS011;20046;50.746;7.072;2024-01-06T12:46:53;25.42;;;11.77;;
33716;SDS011;20046;50.746;7.072;2024-01-06T12:49:18;25.83;;;11.88;;
33716;SDS011;20046;50.746;7.072;2024-01-06T12:51:44;30.30;;;12.27;;
33716;SDS011;20046;50.746;7.072;2024-01-06T12:54:10;28.17;;;11.50;;
33716;SDS011;20046;50.746;7.072;2024-01-06T12:56:35;21.17;;;11.00;;
33716;SDS011;20046;50.746;7.072;2024-01-06T12:59:01;24.85;;;10.90;;
33716;SDS011;20046;50.746;7.072;2024-01-06T13:01:27;23.42;;;10.60;;
33716;SDS011;20046;50.746;7.072;2024-01-06T13:03:53;26.95;;;10.57;;
33716;SDS011;20046;50.746;7.072;2024-01-06T13:06:19;25.27;;;11.40;;
33716;SDS011;20046;50.746;7.072;2024-01-06T13:08:45;32.00;;;12.32;;
33716;SDS011;20046;50.746;7.072;2024-01-06T13:11:10;31.40;;;13.45;;
33716;SDS011;20046;50.746;7.072;2024-01-06T13:13:36;28.55;;;12.73;;
33716;SDS011;20046;50.746;7.072;2024-01-06T13:16:02;27.85;;;12.02;;
33716;SDS011;20046;50.746;7.072;2024-01-06T13:18:30;31.40;;;12.68;;
33716;SDS011;20046;50.746;7.072;2024-01-06T13:20:55;28.35;;;11.57;;
33716;SDS011;20046;50.746;7.072;2024-01-06T13:23:21;29.30;;;11.75;;
33716;SDS011;20046;50.746;7.072;2024-01-06T13:25:47;26.98;;;12.05;;
33716;SDS011;20046;50.746;7.072;2024-01-06T13:28:12;30.17;;;12.50;;
33716;SDS011;20046;50.746;7.072;2024-01-06T13:30:38;27.92;;;11.65;;
33716;SDS011;20046;50.746;7.072;2024-01-06T13:33:07;24.00;;;11.50;;
33716;SDS011;20046;50.746;7.072;2024-01-06T13:35:34;29.20;;;12.88;;
33716;SDS011;20046;50.746;7.072;2024-01-06T13:38:01;30.83;;;11.98;;
33716;SDS011;20046;50.746;7.072;2024-01-06T13:40:29;25.55;;;11.90;;
33716;SDS011;20046;50.746;7.072;2024-01-06T13:42:55;27.00;;;10.88;;
33716;SDS011;20046;50.746;7.072;2024-01-06T13:45:21;27.42;;;11.50;;
33716;SDS011;20046;50.746;7.072;2024-01-06T13:47:46;29.95;;;12.85;;
33716;SDS011;20046;50.746;7.072;2024-01-06T13:50:13;40.30;;;14.32;;
33716;SDS011;20046;50.746;7.072;2024-01-06T13:52:40;33.53;;;13.50;;
33716;SDS011;20046;50.746;7.072;2024-01-06T13:55:06;35.55;;;13.80;;
33716;SDS011;20046;50.746;7.072;2024-01-06T13:57:33;31.48;;;13.88;;
33716;SDS011;20046;50.746;7.072;2024-01-06T13:59:59;36.08;;;15.65;;
33716;SDS011;20046;50.746;7.072;2024-01-06T14:02:25;34.10;;;14.85;;
33716;SDS011;20046;50.746;7.072;2024-01-06T14:04:51;36.33;;;15.48;;
33716;SDS011;20046;50.746;7.072;2024-01-06T14:07:16;35.38;;;14.07;;
33716;SDS011;20046;50.746;7.072;2024-01-06T14:09:47;35.35;;;15.30;;
33716;SDS011;20046;50.746;7.072;2024-01-06T14:12:12;37.60;;;15.85;;
33716;SDS011;20046;50.746;7.072;2024-01-06T14:14:38;43.20;;;17.45;;
33716;SDS011;20046;50.746;7.072;2024-01-06T14:17:04;39.35;;;16.23;;
33716;SDS011;20046;50.746;7.072;2024-01-06T14:19:30;38.85;;;15.25;;
33716;SDS011;20046;50.746;7.072;2024-01-06T14:21:55;34.50;;;14.93;;
33716;SDS011;20046;50.746;7.072;2024-01-06T14:24:21;33.65;;;13.50;;
33716;SDS011;20046;50.746;7.072;2024-01-06T14:26:50;36.75;;;14.70;;
33716;SDS011;20046;50.746;7.072;2024-01-06T14:29:16;35.63;;;15.35;;